x

Destruction Island, Wa (desw1) Weather Station

9:00pm - Sat 29th Apr 2017 All times are PDT. -7 hours from GMT.

  • Wind
    20mph, 21mph gusts
  • 空気 Temp 46°f
  • Sea Pressure 1018.8mb
  • Destruction Island, Wa
  • Destruction Island, Wa

More Historic Weather Station data

Upgrade to MSW Pro to gain access to the past 30 days of data for over 8000 Wavebouys and Weather Stations around the globe.

Join Pro

Comparision Forecast

View Surf forecast
   
Sat 04/29 9:00pm 20 21 mph 1018.8mb 46f
8:00pm 30 32 mph 1018.3mb 46f
7:00pm 32 34 mph 1018.6mb 46f
6:00pm 33 37 mph 1019.1mb 45f
5:00pm 32 36 mph 1020mb 45f
4:00pm 32 37 mph 1020.1mb 45f
3:00pm 33 37 mph 1021.2mb 47f
2:00pm 32 36 mph 1021.8mb 48f
1:00pm 23 30 mph 1022.2mb 50f
12:00pm 24 28 mph 1022mb 49f
11:00am 23 25 mph 1022.5mb 49f
10:00am 18 21 mph 1023.7mb 47f
9:00am 11 13 mph 1024.9mb 47f
8:00am 5
mph
1025.4mb 45f
7:00am 5 6 mph 1025.4mb 44f
6:00am 7 9 mph 1025.3mb 43f
5:00am 8
mph
1025.6mb 44f
4:00am 8 9 mph 1026.1mb 44f
3:00am 7 8 mph 1026.4mb 45f
2:00am 7
mph
1027mb 45f
1:00am 5
mph
1027.3mb 47f
12:00am 5 6 mph 1027mb 47f
Fri 04/28 11:00pm 7 8 mph 1027.9mb 49f
10:00pm 11 13 mph 1028.2mb 49f
9:00pm 11 13 mph 1028.1mb 49f
8:00pm 10 13 mph 1028.1mb 49f
6:00pm 9 13 mph 1028.6mb 51f
5:00pm 8 10 mph 1028.6mb 52f
4:00pm 11 15 mph 1028.8mb 52f
3:00pm 13 14 mph 1029.1mb 52f
2:00pm 11 14 mph 1029mb 52f
1:00pm 11 13 mph 1029.1mb 53f
12:00pm 11 13 mph 1028.8mb 52f
11:00am 13 15 mph 1028.8mb 51f
10:00am 1 3 mph 1028.4mb 48f
9:00am 3 5 mph 1027.9mb 47f
8:00am 6 7 mph 1027.1mb 45f
7:00am 8
mph
1026.6mb 45f
6:00am 3 7 mph 1026mb 45f
5:00am 5 7 mph 1025.6mb 46f
4:00am 21 23 mph 1025mb 49f
3:00am 20 21 mph 1024.8mb 49f
2:00am 16 17 mph 1024.7mb 49f
1:00am 16 17 mph 1024.1mb 49f
12:00am 21 23 mph 1023.7mb 49f
Thu 04/27 11:00pm 21 22 mph 1023.5mb 48f
10:00pm 20 23 mph 1023.3mb 49f
9:00pm 20 21 mph 1022.8mb 48f
8:00pm 22 24 mph 1022.3mb 48f
7:00pm 13 14 mph 1021.9mb 48f
6:00pm 20 25 mph 1021.4mb 49f
5:00pm 17 20 mph 1021.4mb 50f
4:00pm 18 21 mph 1021.2mb 50f
3:00pm 17 21 mph 1021mb 50f
2:00pm 14 17 mph 1020.6mb 49f
1:00pm 23 25 mph 1020.2mb 49f
12:00pm 1 3 mph 1020.2mb 49f
11:00am  -  mph 1019.8mb 47f
10:00am 9 10 mph 1019.5mb 45f
9:00am 5 6 mph 1019.2mb 47f
8:00am 6
mph
1018.8mb 45f
7:00am 10
mph
1018.7mb 44f
6:00am 17 18 mph 1018.1mb 48f
5:00am 9 10 mph 1018mb 47f
3:00am 15 16 mph 1017.5mb 48f
2:00am 18 20 mph 1017.4mb 48f
1:00am 6 8 mph 1017.3mb 46f
12:00am 17 20 mph 1016.8mb 47f
Wed 04/26 11:00pm 17 20 mph 1016.4mb 48f
10:00pm 28 29 mph 1016.2mb 48f
9:00pm 23 26 mph 1015.7mb 48f
8:00pm 24 25 mph 1015mb 49f
7:00pm 22 24 mph 1014.7mb 49f
6:00pm 22 25 mph 1014.6mb 49f
5:00pm 22 23 mph 1014.3mb 49f
4:00pm 13 14 mph 1013.8mb 47f
3:00pm 14 15 mph 1013.7mb 49f
2:00pm 16 17 mph 1013.3mb 49f
1:00pm 24 28 mph 1013mb 49f
12:00pm 20 21 mph 1011.9mb 49f
11:00am 20 22 mph 1011.7mb 48f
10:00am 17 20 mph 1011.2mb 49f
9:00am 15 17 mph 1010.6mb 49f
8:00am 18 21 mph 1009.9mb 48f
7:00am 15 16 mph 1009.5mb 48f
6:00am 20 22 mph 1009mb 48f